sensor_id;sensor_type;location;lat;lon;timestamp;temperature;humidity
36594;DHT22;22603;47.900;8.146;2023-02-28T00:00:55;-4.00;99.90
36594;DHT22;22603;47.900;8.146;2023-02-28T00:03:42;-4.10;99.90
36594;DHT22;22603;47.900;8.146;2023-02-28T00:06:29;-3.60;99.90
36594;DHT22;22603;47.900;8.146;2023-02-28T00:09:16;-4.10;99.90
36594;DHT22;22603;47.900;8.146;2023-02-28T00:12:05;-4.10;99.90
36594;DHT22;22603;47.900;8.146;2023-02-28T00:14:55;-4.10;99.90
36594;DHT22;22603;47.900;8.146;2023-02-28T00:17:43;-4.20;99.90
36594;DHT22;22603;47.900;8.146;2023-02-28T00:20:30;-4.20;99.90
36594;DHT22;22603;47.900;8.146;2023-02-28T00:23:17;-4.20;99.90
36594;DHT22;22603;47.900;8.146;2023-02-28T00:26:04;-4.20;99.90
36594;DHT22;22603;47.900;8.146;2023-02-28T00:28:53;-4.10;99.90
36594;DHT22;22603;47.900;8.146;2023-02-28T00:31:40;-4.10;99.90
36594;DHT22;22603;47.900;8.146;2023-02-28T00:34:27;-4.20;99.90
36594;DHT22;22603;47.900;8.146;2023-02-28T00:37:14;-4.10;99.90
36594;DHT22;22603;47.900;8.146;2023-02-28T00:40:01;-4.10;99.90
36594;DHT22;22603;47.900;8.146;2023-02-28T00:42:50;-4.10;99.90
36594;DHT22;22603;47.900;8.146;2023-02-28T00:45:38;-4.10;99.90
36594;DHT22;22603;47.900;8.146;2023-02-28T00:48:26;-3.80;99.90
36594;DHT22;22603;47.900;8.146;2023-02-28T00:51:13;-3.80;99.90
36594;DHT22;22603;47.900;8.146;2023-02-28T00:54:00;-4.10;99.90
36594;DHT22;22603;47.900;8.146;2023-02-28T00:56:47;-4.10;99.90
36594;DHT22;22603;47.900;8.146;2023-02-28T00:59:34;-4.20;99.90
36594;DHT22;22603;47.900;8.146;2023-02-28T01:02:23;-4.20;99.90
36594;DHT22;22603;47.900;8.146;2023-02-28T01:05:10;-4.20;99.90
36594;DHT22;22603;47.900;8.146;2023-02-28T01:07:57;-4.20;99.90
36594;DHT22;22603;47.900;8.146;2023-02-28T01:10:44;-4.20;99.90
36594;DHT22;22603;47.900;8.146;2023-02-28T01:13:31;-4.10;99.90
36594;DHT22;22603;47.900;8.146;2023-02-28T01:16:18;-4.10;99.90
36594;DHT22;22603;47.900;8.146;2023-02-28T01:19:07;-4.20;99.90
36594;DHT22;22603;47.900;8.146;2023-02-28T01:21:54;-4.10;99.90
36594;DHT22;22603;47.900;8.146;2023-02-28T01:24:41;-4.10;99.90
36594;DHT22;22603;47.900;8.146;2023-02-28T01:27:28;-4.00;99.90
36594;DHT22;22603;47.900;8.146;2023-02-28T01:30:15;-4.10;99.90
36594;DHT22;22603;47.900;8.146;2023-02-28T01:33:02;-4.00;99.90
36594;DHT22;22603;47.900;8.146;2023-02-28T01:35:57;-4.10;99.90
36594;DHT22;22603;47.900;8.146;2023-02-28T01:38:45;-4.00;99.90
36594;DHT22;22603;47.900;8.146;2023-02-28T01:41:33;-4.10;99.90
36594;DHT22;22603;47.900;8.146;2023-02-28T01:44:57;-4.10;99.90
36594;DHT22;22603;47.900;8.146;2023-02-28T01:47:45;-4.10;99.90
36594;DHT22;22603;47.900;8.146;2023-02-28T01:50:37;-4.10;99.90
36594;DHT22;22603;47.900;8.146;2023-02-28T01:53:30;-4.10;99.90
36594;DHT22;22603;47.900;8.146;2023-02-28T01:56:22;-4.10;99.90
36594;DHT22;22603;47.900;8.146;2023-02-28T01:59:13;-4.20;99.90
36594;DHT22;22603;47.900;8.146;2023-02-28T02:02:01;-4.20;99.90
36594;DHT22;22603;47.900;8.146;2023-02-28T02:04:53;-4.30;99.90
36594;DHT22;22603;47.900;8.146;2023-02-28T02:07:43;-4.30;99.90
36594;DHT22;22603;47.900;8.146;2023-02-28T02:10:34;-4.30;99.90
36594;DHT22;22603;47.900;8.146;2023-02-28T02:13:34;-4.30;99.90
36594;DHT22;22603;47.900;8.146;2023-02-28T02:16:36;-4.20;99.90
36594;DHT22;22603;47.900;8.146;2023-02-28T02:19:52;-4.20;99.90
36594;DHT22;22603;47.900;8.146;2023-02-28T02:26:33;-4.20;99.90
36594;DHT22;22603;47.900;8.146;2023-02-28T02:33:04;-4.20;99.90
36594;DHT22;22603;47.900;8.146;2023-02-28T02:35:56;-4.30;99.90
36594;DHT22;22603;47.900;8.146;2023-02-28T02:38:49;-4.20;99.90
36594;DHT22;22603;47.900;8.146;2023-02-28T02:41:40;-4.10;99.90
36594;DHT22;22603;47.900;8.146;2023-02-28T02:44:36;-4.20;99.90
36594;DHT22;22603;47.900;8.146;2023-02-28T02:47:29;-4.20;99.90
36594;DHT22;22603;47.900;8.146;2023-02-28T02:50:21;-4.20;99.90
36594;DHT22;22603;47.900;8.146;2023-02-28T02:53:15;-4.20;99.90
36594;DHT22;22603;47.900;8.146;2023-02-28T02:56:06;-4.20;99.90
36594;DHT22;22603;47.900;8.146;2023-02-28T02:58:55;-4.30;99.90
36594;DHT22;22603;47.900;8.146;2023-02-28T03:01:44;-4.30;99.90
36594;DHT22;22603;47.900;8.146;2023-02-28T03:04:33;-4.20;99.90
36594;DHT22;22603;47.900;8.146;2023-02-28T03:07:21;-4.30;99.90
36594;DHT22;22603;47.900;8.146;2023-02-28T03:10:31;-4.40;99.90
36594;DHT22;22603;47.900;8.146;2023-02-28T03:16:53;-4.40;99.90
36594;DHT22;22603;47.900;8.146;2023-02-28T03:19:51;-4.30;99.90
36594;DHT22;22603;47.900;8.146;2023-02-28T03:22:56;-4.40;99.90
36594;DHT22;22603;47.900;8.146;2023-02-28T03:25:54;-4.30;99.90
36594;DHT22;22603;47.900;8.146;2023-02-28T03:28:50;-4.30;99.90
36594;DHT22;22603;47.900;8.146;2023-02-28T03:31:39;-4.30;99.90
36594;DHT22;22603;47.900;8.146;2023-02-28T03:34:30;-4.00;99.90
36594;DHT22;22603;47.900;8.146;2023-02-28T03:37:22;-4.40;99.90
36594;DHT22;22603;47.900;8.146;2023-02-28T03:40:13;-4.30;99.90
36594;DHT22;22603;47.900;8.146;2023-02-28T03:43:07;-4.40;99.90
36594;DHT22;22603;47.900;8.146;2023-02-28T03:45:55;-4.40;99.90
36594;DHT22;22603;47.900;8.146;2023-02-28T03:48:45;-4.50;99.90
36594;DHT22;22603;47.900;8.146;2023-02-28T03:51:36;-4.50;99.90
36594;DHT22;22603;47.900;8.146;2023-02-28T03:54:27;-4.50;99.90
36594;DHT22;22603;47.900;8.146;2023-02-28T03:57:22;-4.40;99.90
36594;DHT22;22603;47.900;8.146;2023-02-28T04:00:17;-4.40;99.90
36594;DHT22;22603;47.900;8.146;2023-02-28T04:03:05;-4.50;99.90
36594;DHT22;22603;47.900;8.146;2023-02-28T04:05:53;-4.50;99.90
36594;DHT22;22603;47.900;8.146;2023-02-28T04:08:41;-4.40;99.90
36594;DHT22;22603;47.900;8.146;2023-02-28T04:11:32;-4.40;99.90
36594;DHT22;22603;47.900;8.146;2023-02-28T04:14:20;-4.40;99.90
36594;DHT22;22603;47.900;8.146;2023-02-28T04:17:11;-4.40;99.90
36594;DHT22;22603;47.900;8.146;2023-02-28T04:19:58;-4.50;99.90
36594;DHT22;22603;47.900;8.146;2023-02-28T04:22:45;-4.40;99.90
36594;DHT22;22603;47.900;8.146;2023-02-28T04:25:32;-4.40;99.90
36594;DHT22;22603;47.900;8.146;2023-02-28T04:28:18;-4.40;99.90
36594;DHT22;22603;47.900;8.146;2023-02-28T04:31:05;-4.40;99.90
36594;DHT22;22603;47.900;8.146;2023-02-28T04:33:54;-4.50;99.90
36594;DHT22;22603;47.900;8.146;2023-02-28T04:36:40;-4.40;99.90
36594;DHT22;22603;47.900;8.146;2023-02-28T04:39:28;-4.50;99.90
36594;DHT22;22603;47.900;8.146;2023-02-28T04:42:15;-4.40;99.90
36594;DHT22;22603;47.900;8.146;2023-02-28T04:45:02;-4.50;99.90
36594;DHT22;22603;47.900;8.146;2023-02-28T04:47:49;-4.50;99.90
36594;DHT22;22603;47.900;8.146;2023-02-28T04:50:38;-4.60;99.90
36594;DHT22;22603;47.900;8.146;2023-02-28T04:53:24;-4.60;99.90
36594;DHT22;22603;47.900;8.146;2023-02-28T04:56:13;-4.50;99.90
36594;DHT22;22603;47.900;8.146;2023-02-28T04:59:00;-4.40;99.90
36594;DHT22;22603;47.900;8.146;2023-02-28T05:01:51;-4.60;99.90
36594;DHT22;22603;47.900;8.146;2023-02-28T05:04:37;-4.50;99.90
36594;DHT22;22603;47.900;8.146;2023-02-28T05:07:26;-4.50;99.90
36594;DHT22;22603;47.900;8.146;2023-02-28T05:10:13;-4.50;99.90
36594;DHT22;22603;47.900;8.146;2023-02-28T05:13:00;-4.50;99.90
36594;DHT22;22603;47.900;8.146;2023-02-28T05:15:47;-4.40;99.90
36594;DHT22;22603;47.900;8.146;2023-02-28T05:18:35;-4.30;99.90
36594;DHT22;22603;47.900;8.146;2023-02-28T05:21:28;-4.60;99.90
36594;DHT22;22603;47.900;8.146;2023-02-28T05:24:18;-4.60;99.90
36594;DHT22;22603;47.900;8.146;2023-02-28T05:27:09;-4.60;99.90
36594;DHT22;22603;47.900;8.146;2023-02-28T05:29:56;-4.60;99.90
36594;DHT22;22603;47.900;8.146;2023-02-28T05:32:49;-4.50;99.90
36594;DHT22;22603;47.900;8.146;2023-02-28T05:35:38;-4.40;99.90
36594;DHT22;22603;47.900;8.146;2023-02-28T05:38:25;-4.60;99.90
36594;DHT22;22603;47.900;8.146;2023-02-28T05:41:13;-4.60;99.90
36594;DHT22;22603;47.900;8.146;2023-02-28T05:44:00;-4.60;99.90
36594;DHT22;22603;47.900;8.146;2023-02-28T05:46:47;-4.70;99.90
36594;DHT22;22603;47.900;8.146;2023-02-28T05:49:34;-4.60;99.90
36594;DHT22;22603;47.900;8.146;2023-02-28T05:52:22;-4.60;99.90
36594;DHT22;22603;47.900;8.146;2023-02-28T05:55:09;-4.70;99.90
36594;DHT22;22603;47.900;8.146;2023-02-28T05:57:57;-4.60;99.90
36594;DHT22;22603;47.900;8.146;2023-02-28T06:00:44;-4.60;99.90
36594;DHT22;22603;47.900;8.146;2023-02-28T06:03:32;-4.70;99.90
36594;DHT22;22603;47.900;8.146;2023-02-28T06:06:19;-4.70;99.90
36594;DHT22;22603;47.900;8.146;2023-02-28T06:09:06;-4.70;99.90
36594;DHT22;22603;47.900;8.146;2023-02-28T06:11:53;-4.70;99.90
36594;DHT22;22603;47.900;8.146;2023-02-28T06:14:42;-4.60;99.90
36594;DHT22;22603;47.900;8.146;2023-02-28T06:17:30;-4.70;99.90
36594;DHT22;22603;47.900;8.146;2023-02-28T06:20:17;-4.70;99.90
36594;DHT22;22603;47.900;8.146;2023-02-28T06:23:04;-4.70;99.90
36594;DHT22;22603;47.900;8.146;2023-02-28T06:25:51;-4.70;99.90
36594;DHT22;22603;47.900;8.146;2023-02-28T06:28:38;-4.70;99.90
36594;DHT22;22603;47.900;8.146;2023-02-28T06:31:27;-4.70;99.90
36594;DHT22;22603;47.900;8.146;2023-02-28T06:34:15;-4.60;99.90
36594;DHT22;22603;47.900;8.146;2023-02-28T06:37:03;-3.60;99.90
36594;DHT22;22603;47.900;8.146;2023-02-28T06:39:51;-4.30;99.90
36594;DHT22;22603;47.900;8.146;2023-02-28T06:42:38;-4.60;99.90
36594;DHT22;22603;47.900;8.146;2023-02-28T06:45:25;-4.60;99.90
36594;DHT22;22603;47.900;8.146;2023-02-28T06:48:14;-4.50;99.90
36594;DHT22;22603;47.900;8.146;2023-02-28T06:51:05;-4.70;99.90
36594;DHT22;22603;47.900;8.146;2023-02-28T06:53:53;-4.60;99.90
36594;DHT22;22603;47.900;8.146;2023-02-28T06:56:39;-4.50;99.90
36594;DHT22;22603;47.900;8.146;2023-02-28T06:59:29;-4.50;99.90
36594;DHT22;22603;47.900;8.146;2023-02-28T07:02:16;-4.50;99.90
36594;DHT22;22603;47.900;8.146;2023-02-28T07:05:05;-4.50;99.90
36594;DHT22;22603;47.900;8.146;2023-02-28T07:07:52;-4.40;99.90
36594;DHT22;22603;47.900;8.146;2023-02-28T07:10:40;-4.40;99.90
36594;DHT22;22603;47.900;8.146;2023-02-28T07:13:27;-4.30;99.90
36594;DHT22;22603;47.900;8.146;2023-02-28T07:16:14;-4.30;99.90
36594;DHT22;22603;47.900;8.146;2023-02-28T07:19:01;-4.20;99.90
36594;DHT22;22603;47.900;8.146;2023-02-28T07:21:50;-4.20;99.90
36594;DHT22;22603;47.900;8.146;2023-02-28T07:24:36;-4.20;99.90
36594;DHT22;22603;47.900;8.146;2023-02-28T07:27:23;-3.90;99.90
36594;DHT22;22603;47.900;8.146;2023-02-28T07:30:12;-4.10;99.90
36594;DHT22;22603;47.900;8.146;2023-02-28T07:32:59;-4.10;99.90
36594;DHT22;22603;47.900;8.146;2023-02-28T07:35:46;-4.10;99.90
36594;DHT22;22603;47.900;8.146;2023-02-28T07:38:36;-3.80;99.90
36594;DHT22;22603;47.900;8.146;2023-02-28T07:41:23;-3.90;99.90
36594;DHT22;22603;47.900;8.146;2023-02-28T07:44:13;-4.00;99.90
36594;DHT22;22603;47.900;8.146;2023-02-28T07:47:00;-3.90;99.90
36594;DHT22;22603;47.900;8.146;2023-02-28T07:49:47;-3.90;99.90
36594;DHT22;22603;47.900;8.146;2023-02-28T07:52:35;-3.90;99.90
36594;DHT22;22603;47.900;8.146;2023-02-28T07:55:24;-3.80;99.90
36594;DHT22;22603;47.900;8.146;2023-02-28T07:58:11;-3.70;99.90
36594;DHT22;22603;47.900;8.146;2023-02-28T08:01:05;-3.70;99.90
36594;DHT22;22603;47.900;8.146;2023-02-28T08:03:52;-3.60;99.90
36594;DHT22;22603;47.900;8.146;2023-02-28T08:06:40;-3.70;99.90
36594;DHT22;22603;47.900;8.146;2023-02-28T08:09:27;-3.60;99.90
36594;DHT22;22603;47.900;8.146;2023-02-28T08:12:16;-3.50;99.90
36594;DHT22;22603;47.900;8.146;2023-02-28T08:15:04;-3.50;99.90
36594;DHT22;22603;47.900;8.146;2023-02-28T08:17:51;-3.60;99.90
36594;DHT22;22603;47.900;8.146;2023-02-28T08:20:38;-3.40;99.90
36594;DHT22;22603;47.900;8.146;2023-02-28T08:23:25;-3.40;99.90
36594;DHT22;22603;47.900;8.146;2023-02-28T08:26:12;-3.30;99.90
36594;DHT22;22603;47.900;8.146;2023-02-28T08:29:01;-3.20;99.90
36594;DHT22;22603;47.900;8.146;2023-02-28T08:31:48;-3.20;99.90
36594;DHT22;22603;47.900;8.146;2023-02-28T08:34:36;-3.20;99.90
36594;DHT22;22603;47.900;8.146;2023-02-28T08:37:25;-3.10;99.90
36594;DHT22;22603;47.900;8.146;2023-02-28T08:40:12;-3.10;99.90
36594;DHT22;22603;47.900;8.146;2023-02-28T08:43:03;-3.10;99.90
36594;DHT22;22603;47.900;8.146;2023-02-28T08:45:53;-3.30;99.90
36594;DHT22;22603;47.900;8.146;2023-02-28T08:48:40;-3.40;99.90
36594;DHT22;22603;47.900;8.146;2023-02-28T08:51:28;-3.70;99.90
36594;DHT22;22603;47.900;8.146;2023-02-28T08:54:15;-3.70;99.90
36594;DHT22;22603;47.900;8.146;2023-02-28T08:57:04;-3.50;99.90
36594;DHT22;22603;47.900;8.146;2023-02-28T08:59:51;-3.10;99.90
36594;DHT22;22603;47.900;8.146;2023-02-28T09:02:40;-3.40;99.90
36594;DHT22;22603;47.900;8.146;2023-02-28T09:05:29;-3.70;99.90
36594;DHT22;22603;47.900;8.146;2023-02-28T09:08:16;-3.40;99.90
36594;DHT22;22603;47.900;8.146;2023-02-28T09:11:03;-3.30;99.90
36594;DHT22;22603;47.900;8.146;2023-02-28T09:13:50;-3.60;99.90
36594;DHT22;22603;47.900;8.146;2023-02-28T09:16:37;-3.30;99.90
36594;DHT22;22603;47.900;8.146;2023-02-28T09:19:26;-3.20;99.90
36594;DHT22;22603;47.900;8.146;2023-02-28T09:22:13;-3.20;99.90
36594;DHT22;22603;47.900;8.146;2023-02-28T09:25:00;-3.10;99.90
36594;DHT22;22603;47.900;8.146;2023-02-28T09:27:47;-3.40;99.90
36594;DHT22;22603;47.900;8.146;2023-02-28T09:30:34;-3.30;99.90
36594;DHT22;22603;47.900;8.146;2023-02-28T09:33:22;-3.20;99.90
36594;DHT22;22603;47.900;8.146;2023-02-28T09:36:11;-2.90;99.90
36594;DHT22;22603;47.900;8.146;2023-02-28T09:38:58;-2.90;99.90
36594;DHT22;22603;47.900;8.146;2023-02-28T09:41:46;-2.80;99.90
36594;DHT22;22603;47.900;8.146;2023-02-28T09:44:38;-2.80;99.90
36594;DHT22;22603;47.900;8.146;2023-02-28T09:47:32;-3.00;99.90
36594;DHT22;22603;47.900;8.146;2023-02-28T09:50:28;-3.10;99.90
36594;DHT22;22603;47.900;8.146;2023-02-28T09:53:24;-3.40;99.90
36594;DHT22;22603;47.900;8.146;2023-02-28T09:56:18;-2.70;99.90
36594;DHT22;22603;47.900;8.146;2023-02-28T09:59:23;-2.90;99.90
36594;DHT22;22603;47.900;8.146;2023-02-28T10:02:21;-3.40;99.90
36594;DHT22;22603;47.900;8.146;2023-02-28T10:05:13;-3.20;99.90
36594;DHT22;22603;47.900;8.146;2023-02-28T10:08:05;-3.00;99.90
36594;DHT22;22603;47.900;8.146;2023-02-28T10:10:57;-2.80;99.90
36594;DHT22;22603;47.900;8.146;2023-02-28T10:13:51;-2.60;99.90
36594;DHT22;22603;47.900;8.146;2023-02-28T10:16:43;-2.50;99.90
36594;DHT22;22603;47.900;8.146;2023-02-28T10:19:43;-2.40;99.90
36594;DHT22;22603;47.900;8.146;2023-02-28T10:22:35;-2.20;99.90
36594;DHT22;22603;47.900;8.146;2023-02-28T10:25:27;-2.20;99.90
36594;DHT22;22603;47.900;8.146;2023-02-28T10:28:17;-2.20;99.90
36594;DHT22;22603;47.900;8.146;2023-02-28T10:31:04;-2.20;99.90
36594;DHT22;22603;47.900;8.146;2023-02-28T10:33:51;-2.40;99.90
36594;DHT22;22603;47.900;8.146;2023-02-28T10:36:38;-2.30;99.90
36594;DHT22;22603;47.900;8.146;2023-02-28T10:39:36;-2.30;99.90
36594;DHT22;22603;47.900;8.146;2023-02-28T10:42:25;-2.40;99.90
36594;DHT22;22603;47.900;8.146;2023-02-28T10:45:15;-1.40;99.90
36594;DHT22;22603;47.900;8.146;2023-02-28T10:48:04;-2.20;99.90
36594;DHT22;22603;47.900;8.146;2023-02-28T10:50:53;-2.20;99.90
36594;DHT22;22603;47.900;8.146;2023-02-28T10:53:48;-2.00;99.90
36594;DHT22;22603;47.900;8.146;2023-02-28T10:57:06;-1.80;99.90
36594;DHT22;22603;47.900;8.146;2023-02-28T11:00:13;-1.60;99.90
36594;DHT22;22603;47.900;8.146;2023-02-28T11:03:29;-1.50;99.90
36594;DHT22;22603;47.900;8.146;2023-02-28T11:06:19;-1.80;99.90
36594;DHT22;22603;47.900;8.146;2023-02-28T11:09:19;-1.90;99.90
36594;DHT22;22603;47.900;8.146;2023-02-28T11:12:23;-2.00;99.90
36594;DHT22;22603;47.900;8.146;2023-02-28T11:15:22;-1.90;99.90
36594;DHT22;22603;47.900;8.146;2023-02-28T11:18:23;-1.90;99.90
36594;DHT22;22603;47.900;8.146;2023-02-28T11:21:18;-1.90;99.90
36594;DHT22;22603;47.900;8.146;2023-02-28T11:24:20;-2.50;99.90
36594;DHT22;22603;47.900;8.146;2023-02-28T11:27:24;-2.70;99.90
36594;DHT22;22603;47.900;8.146;2023-02-28T11:30:32;-2.80;99.90
36594;DHT22;22603;47.900;8.146;2023-02-28T11:33:27;-2.80;99.90
36594;DHT22;22603;47.900;8.146;2023-02-28T11:36:18;-2.60;99.90
36594;DHT22;22603;47.900;8.146;2023-02-28T11:39:10;-2.40;99.90
36594;DHT22;22603;47.900;8.146;2023-02-28T11:42:09;-2.20;99.90
36594;DHT22;22603;47.900;8.146;2023-02-28T11:45:07;-2.10;99.90
36594;DHT22;22603;47.900;8.146;2023-02-28T11:48:06;-2.20;99.90
36594;DHT22;22603;47.900;8.146;2023-02-28T11:51:08;-1.70;99.90
36594;DHT22;22603;47.900;8.146;2023-02-28T11:54:23;-1.50;99.90
36594;DHT22;22603;47.900;8.146;2023-02-28T11:57:32;-1.30;99.90
36594;DHT22;22603;47.900;8.146;2023-02-28T12:00:33;-1.40;99.90
36594;DHT22;22603;47.900;8.146;2023-02-28T12:03:28;-1.10;99.90
36594;DHT22;22603;47.900;8.146;2023-02-28T12:06:23;-1.10;99.90
36594;DHT22;22603;47.900;8.146;2023-02-28T12:09:36;-1.20;99.90
36594;DHT22;22603;47.900;8.146;2023-02-28T12:12:37;-0.90;99.90
36594;DHT22;22603;47.900;8.146;2023-02-28T12:15:53;-0.60;99.90
36594;DHT22;22603;47.900;8.146;2023-02-28T12:18:54;-0.50;99.90
36594;DHT22;22603;47.900;8.146;2023-02-28T12:22:18;-0.60;99.90
36594;DHT22;22603;47.900;8.146;2023-02-28T12:28:40;-0.20;99.90
36594;DHT22;22603;47.900;8.146;2023-02-28T12:31:31;-0.20;99.90
36594;DHT22;22603;47.900;8.146;2023-02-28T12:34:25;-0.20;99.90
36594;DHT22;22603;47.900;8.146;2023-02-28T12:37:19;-0.20;99.90
36594;DHT22;22603;47.900;8.146;2023-02-28T12:40:13;-0.40;99.90
36594;DHT22;22603;47.900;8.146;2023-02-28T12:43:04;-0.50;99.90
36594;DHT22;22603;47.900;8.146;2023-02-28T12:45:56;-0.80;99.90
36594;DHT22;22603;47.900;8.146;2023-02-28T12:48:47;-0.70;99.90
36594;DHT22;22603;47.900;8.146;2023-02-28T12:51:35;-1.10;99.90
36594;DHT22;22603;47.900;8.146;2023-02-28T12:54:28;-1.20;99.90
36594;DHT22;22603;47.900;8.146;2023-02-28T12:57:22;-0.90;99.90
36594;DHT22;22603;47.900;8.146;2023-02-28T13:00:14;-0.80;99.90
36594;DHT22;22603;47.900;8.146;2023-02-28T13:03:28;-0.60;99.90
36594;DHT22;22603;47.900;8.146;2023-02-28T13:06:33;-0.40;99.90
36594;DHT22;22603;47.900;8.146;2023-02-28T13:09:22;-0.60;99.90
36594;DHT22;22603;47.900;8.146;2023-02-28T13:12:15;-0.50;99.90
36594;DHT22;22603;47.900;8.146;2023-02-28T13:15:06;-0.10;99.90
36594;DHT22;22603;47.900;8.146;2023-02-28T13:17:59;-0.50;99.90
36594;DHT22;22603;47.900;8.146;2023-02-28T13:20:47;-0.30;99.90
36594;DHT22;22603;47.900;8.146;2023-02-28T13:23:56;-0.10;99.90
36594;DHT22;22603;47.900;8.146;2023-02-28T13:27:22;-0.20;99.90
36594;DHT22;22603;47.900;8.146;2023-02-28T13:33:36;-0.10;99.90
36594;DHT22;22603;47.900;8.146;2023-02-28T13:36:26;-0.20;99.90
36594;DHT22;22603;47.900;8.146;2023-02-28T13:39:47;-0.40;99.90
36594;DHT22;22603;47.900;8.146;2023-02-28T13:42:36;-0.50;99.90
36594;DHT22;22603;47.900;8.146;2023-02-28T13:45:35;-0.30;99.90
36594;DHT22;22603;47.900;8.146;2023-02-28T13:48:26;-0.30;99.90
36594;DHT22;22603;47.900;8.146;2023-02-28T13:51:42;-0.40;99.90
36594;DHT22;22603;47.900;8.146;2023-02-28T13:54:40;-0.40;99.90
36594;DHT22;22603;47.900;8.146;2023-02-28T13:57:44;0.20;99.90
36594;DHT22;22603;47.900;8.146;2023-02-28T14:00:48;-0.30;99.90
36594;DHT22;22603;47.900;8.146;2023-02-28T14:04:18;-0.50;99.90
36594;DHT22;22603;47.900;8.146;2023-02-28T14:07:08;-0.60;99.90
36594;DHT22;22603;47.900;8.146;2023-02-28T14:10:00;-0.50;99.90
36594;DHT22;22603;47.900;8.146;2023-02-28T14:13:10;-0.40;99.90
36594;DHT22;22603;47.900;8.146;2023-02-28T14:15:59;-0.50;99.90
36594;DHT22;22603;47.900;8.146;2023-02-28T14:18:50;-0.40;99.90
36594;DHT22;22603;47.900;8.146;2023-02-28T14:21:40;-0.40;99.90
36594;DHT22;22603;47.900;8.146;2023-02-28T14:25:01;-0.20;99.90
36594;DHT22;22603;47.900;8.146;2023-02-28T14:28:02;-0.30;99.90
36594;DHT22;22603;47.900;8.146;2023-02-28T14:30:57;-0.30;99.90
36594;DHT22;22603;47.900;8.146;2023-02-28T14:34:00;-0.20;99.90
36594;DHT22;22603;47.900;8.146;2023-02-28T14:36:52;-0.30;99.90
36594;DHT22;22603;47.900;8.146;2023-02-28T14:39:41;-0.50;99.90
36594;DHT22;22603;47.900;8.146;2023-02-28T14:42:32;-0.60;99.90
36594;DHT22;22603;47.900;8.146;2023-02-28T14:45:22;-0.70;99.90
36594;DHT22;22603;47.900;8.146;2023-02-28T14:48:10;-0.90;99.90
36594;DHT22;22603;47.900;8.146;2023-02-28T14:50:58;-0.80;99.90
36594;DHT22;22603;47.900;8.146;2023-02-28T14:53:49;-1.00;99.90
36594;DHT22;22603;47.900;8.146;2023-02-28T14:56:39;-0.80;99.90
36594;DHT22;22603;47.900;8.146;2023-02-28T14:59:28;-0.90;99.90
36594;DHT22;22603;47.900;8.146;2023-02-28T15:02:20;-0.70;99.90
36594;DHT22;22603;47.900;8.146;2023-02-28T15:05:26;-0.80;99.90
36594;DHT22;22603;47.900;8.146;2023-02-28T15:08:15;-0.80;99.90
36594;DHT22;22603;47.900;8.146;2023-02-28T15:11:05;-0.90;99.90
36594;DHT22;22603;47.900;8.146;2023-02-28T15:13:54;-1.00;99.90
36594;DHT22;22603;47.900;8.146;2023-02-28T15:16:43;-1.10;99.90
36594;DHT22;22603;47.900;8.146;2023-02-28T15:19:39;-1.00;99.90
36594;DHT22;22603;47.900;8.146;2023-02-28T15:22:31;-1.00;99.90
36594;DHT22;22603;47.900;8.146;2023-02-28T15:25:22;-1.00;99.90
36594;DHT22;22603;47.900;8.146;2023-02-28T15:28:14;-0.90;99.90
36594;DHT22;22603;47.900;8.146;2023-02-28T15:31:03;-0.80;99.90
36594;DHT22;22603;47.900;8.146;2023-02-28T15:34:05;-0.90;99.90
36594;DHT22;22603;47.900;8.146;2023-02-28T15:36:54;-0.60;99.90
36594;DHT22;22603;47.900;8.146;2023-02-28T15:39:43;-0.50;99.90
36594;DHT22;22603;47.900;8.146;2023-02-28T15:42:31;-0.60;99.90
36594;DHT22;22603;47.900;8.146;2023-02-28T15:45:31;-0.70;99.90
36594;DHT22;22603;47.900;8.146;2023-02-28T15:48:22;-0.70;99.90
36594;DHT22;22603;47.900;8.146;2023-02-28T15:51:17;-0.70;99.90
36594;DHT22;22603;47.900;8.146;2023-02-28T15:54:07;-0.80;99.90
36594;DHT22;22603;47.900;8.146;2023-02-28T15:56:56;-0.70;99.90
36594;DHT22;22603;47.900;8.146;2023-02-28T15:59:50;-0.70;99.90
36594;DHT22;22603;47.900;8.146;2023-02-28T16:02:38;-0.70;99.90
36594;DHT22;22603;47.900;8.146;2023-02-28T16:05:27;-0.80;99.90
36594;DHT22;22603;47.900;8.146;2023-02-28T16:08:18;-0.70;99.90
36594;DHT22;22603;47.900;8.146;2023-02-28T16:11:08;-0.60;99.90
36594;DHT22;22603;47.900;8.146;2023-02-28T16:13:55;-0.70;99.90
36594;DHT22;22603;47.900;8.146;2023-02-28T16:16:44;-0.80;99.90
36594;DHT22;22603;47.900;8.146;2023-02-28T16:19:32;-1.00;99.90
36594;DHT22;22603;47.900;8.146;2023-02-28T16:22:19;-1.10;99.90
36594;DHT22;22603;47.900;8.146;2023-02-28T16:25:07;-1.10;99.90
36594;DHT22;22603;47.900;8.146;2023-02-28T16:27:56;-1.20;99.90
36594;DHT22;22603;47.900;8.146;2023-02-28T16:30:46;-1.30;99.90
36594;DHT22;22603;47.900;8.146;2023-02-28T16:33:33;-1.30;99.90
36594;DHT22;22603;47.900;8.146;2023-02-28T16:36:22;-1.30;99.90
36594;DHT22;22603;47.900;8.146;2023-02-28T16:39:10;-1.40;99.90
36594;DHT22;22603;47.900;8.146;2023-02-28T16:41:57;-1.50;99.90
36594;DHT22;22603;47.900;8.146;2023-02-28T16:44:46;-1.50;99.90
36594;DHT22;22603;47.900;8.146;2023-02-28T16:47:33;-1.50;99.90
36594;DHT22;22603;47.900;8.146;2023-02-28T16:50:22;-1.60;99.90
36594;DHT22;22603;47.900;8.146;2023-02-28T16:53:10;-1.60;99.90
36594;DHT22;22603;47.900;8.146;2023-02-28T16:55:57;-1.70;99.90
36594;DHT22;22603;47.900;8.146;2023-02-28T16:58:44;-1.80;99.90
36594;DHT22;22603;47.900;8.146;2023-02-28T17:01:35;-1.90;99.90
36594;DHT22;22603;47.900;8.146;2023-02-28T17:04:23;-1.90;99.90
36594;DHT22;22603;47.900;8.146;2023-02-28T17:07:12;-2.00;99.90
36594;DHT22;22603;47.900;8.146;2023-02-28T17:10:00;-2.10;99.90
36594;DHT22;22603;47.900;8.146;2023-02-28T17:12:54;-2.10;99.90
36594;DHT22;22603;47.900;8.146;2023-02-28T17:15:57;-2.30;99.90
36594;DHT22;22603;47.900;8.146;2023-02-28T17:18:47;-2.50;99.90
36594;DHT22;22603;47.900;8.146;2023-02-28T17:21:35;-2.50;99.90
36594;DHT22;22603;47.900;8.146;2023-02-28T17:24:22;-2.70;99.90
36594;DHT22;22603;47.900;8.146;2023-02-28T17:27:15;-2.90;99.90
36594;DHT22;22603;47.900;8.146;2023-02-28T17:30:03;-3.00;99.90
36594;DHT22;22603;47.900;8.146;2023-02-28T17:32:51;-3.10;99.90
36594;DHT22;22603;47.900;8.146;2023-02-28T17:35:40;-3.20;99.90
36594;DHT22;22603;47.900;8.146;2023-02-28T17:38:28;-3.20;99.90
36594;DHT22;22603;47.900;8.146;2023-02-28T17:41:15;-3.30;99.90
36594;DHT22;22603;47.900;8.146;2023-02-28T17:44:02;-3.30;99.90
36594;DHT22;22603;47.900;8.146;2023-02-28T17:46:50;-3.40;99.90
36594;DHT22;22603;47.900;8.146;2023-02-28T17:49:37;-3.50;99.90
36594;DHT22;22603;47.900;8.146;2023-02-28T17:52:26;-3.50;99.90
36594;DHT22;22603;47.900;8.146;2023-02-28T17:55:15;-3.60;99.90
36594;DHT22;22603;47.900;8.146;2023-02-28T17:58:02;-3.70;99.90
36594;DHT22;22603;47.900;8.146;2023-02-28T18:00:49;-3.60;99.90
36594;DHT22;22603;47.900;8.146;2023-02-28T18:03:39;-3.80;99.90
36594;DHT22;22603;47.900;8.146;2023-02-28T18:06:34;-3.80;99.90
36594;DHT22;22603;47.900;8.146;2023-02-28T18:09:34;-3.60;99.90
36594;DHT22;22603;47.900;8.146;2023-02-28T18:12:21;-3.90;99.90
36594;DHT22;22603;47.900;8.146;2023-02-28T18:15:09;-3.90;99.90
36594;DHT22;22603;47.900;8.146;2023-02-28T18:17:57;-4.00;99.90
36594;DHT22;22603;47.900;8.146;2023-02-28T18:20:45;-4.00;99.90